Time;durP1;ratioP1;P1;durP2;ratioP2;P2;SDS_P1;SDS_P2;PMS_P1;PMS_P2;Temp;Humidity;BMP_temperature;BMP_pressure;BME280_temperature;BME280_humidity;BME280_pressure;Samples;Min_cycle;Max_cycle;Signal;HPM_P1;HPM_P2
2023/04/04 00:01:09;;;;;;;3.63;2.60;;;6.50;59.00;;;;;;5073372;28;20464;-58
2023/04/04 00:03:36;;;;;;;2.37;1.97;;;6.60;59.40;;;;;;5073199;28;20480;-58
2023/04/04 00:06:03;;;;;;;3.93;2.50;;;6.60;59.40;;;;;;5073345;28;20456;-58
2023/04/04 00:08:31;;;;;;;4.70;2.20;;;6.50;59.50;;;;;;5072380;28;20440;-58
2023/04/04 00:10:58;;;;;;;3.60;2.03;;;6.50;59.70;;;;;;5073249;28;20448;-58
2023/04/04 00:13:26;;;;;;;3.70;2.23;;;6.50;59.80;;;;;;5073180;28;20563;-59
2023/04/04 00:15:53;;;;;;;2.73;2.00;;;6.50;59.80;;;;;;5073198;28;20926;-59
2023/04/04 00:18:19;;;;;;;3.87;2.20;;;6.50;60.00;;;;;;5073155;28;20448;-59
2023/04/04 00:20:46;;;;;;;3.70;2.10;;;6.40;59.90;;;;;;5072866;28;20877;-59
2023/04/04 00:23:13;;;;;;;2.40;2.20;;;6.40;60.10;;;;;;5073038;28;20499;-59
2023/04/04 00:25:41;;;;;;;4.17;2.40;;;6.40;60.50;;;;;;5073146;28;20448;-59
2023/04/04 00:28:07;;;;;;;5.43;2.87;;;6.40;60.90;;;;;;5073133;28;20445;-59
2023/04/04 00:30:35;;;;;;;3.10;2.53;;;6.40;61.10;;;;;;5072976;28;20939;-58
2023/04/04 00:33:02;;;;;;;3.33;2.33;;;6.30;61.50;;;;;;5072968;28;20465;-58
2023/04/04 00:35:28;;;;;;;4.07;2.33;;;6.30;61.80;;;;;;5072795;28;20451;-59
2023/04/04 00:37:55;;;;;;;5.00;2.50;;;6.30;62.30;;;;;;5072735;28;20451;-59
2023/04/04 00:40:22;;;;;;;3.67;2.40;;;6.20;62.10;;;;;;5072573;28;20460;-59
2023/04/04 00:42:50;;;;;;;3.80;2.77;;;6.20;62.20;;;;;;5072893;28;20485;-58
2023/04/04 00:45:17;;;;;;;2.73;2.33;;;6.20;62.40;;;;;;5072908;28;20448;-59
2023/04/04 00:47:44;;;;;;;5.60;2.90;;;6.10;62.80;;;;;;5073162;28;20453;-59
2023/04/04 00:50:11;;;;;;;3.13;2.30;;;6.10;63.80;;;;;;5073682;28;20444;-59
2023/04/04 00:52:38;;;;;;;3.00;2.60;;;6.10;64.70;;;;;;5072806;28;20514;-58
2023/04/04 00:55:05;;;;;;;3.13;1.77;;;6.00;65.00;;;;;;5072822;28;20539;-58
2023/04/04 00:57:33;;;;;;;6.07;2.23;;;6.00;65.60;;;;;;5072851;28;20463;-59
2023/04/04 01:00:04;;;;;;;1.97;1.77;;;5.90;65.20;;;;;;5072754;28;20487;-59
2023/04/04 01:02:31;;;;;;;2.30;2.00;;;5.90;65.70;;;;;;5072784;28;20518;-59
2023/04/04 01:04:57;;;;;;;4.37;2.63;;;5.90;66.30;;;;;;5072773;28;20559;-59
2023/04/04 01:07:24;;;;;;;2.87;2.60;;;5.80;66.20;;;;;;5072851;28;20452;-59
2023/04/04 01:09:51;;;;;;;2.37;2.17;;;5.80;66.50;;;;;;5072595;28;20457;-59
2023/04/04 01:12:18;;;;;;;3.30;2.43;;;5.70;66.80;;;;;;5072692;28;20452;-59
2023/04/04 01:14:45;;;;;;;6.23;3.13;;;5.70;67.10;;;;;;5072604;28;20460;-59
2023/04/04 01:17:14;;;;;;;6.20;2.63;;;5.70;67.40;;;;;;5072961;28;20441;-59
2023/04/04 01:20:00;;;;;;;2.67;2.40;;;5.60;67.40;;;;;;5073808;28;20449;-59
2023/04/04 01:22:29;;;;;;;2.50;2.00;;;5.60;67.70;;;;;;5076110;28;20494;-59
2023/04/04 01:24:56;;;;;;;2.87;2.40;;;5.60;68.20;;;;;;5075955;28;20530;-59
2023/04/04 01:27:25;;;;;;;4.33;2.67;;;5.60;68.40;;;;;;5076009;28;20448;-58
2023/04/04 01:29:51;;;;;;;2.70;2.13;;;5.50;68.20;;;;;;5075596;28;20949;-58
2023/04/04 01:32:21;;;;;;;4.50;2.97;;;5.50;68.60;;;;;;5075539;28;20973;-59
2023/04/04 01:34:58;;;;;;;2.70;2.20;;;5.50;68.50;;;;;;5075761;28;20471;-59
2023/04/04 01:37:43;;;;;;;2.70;2.00;;;5.50;68.60;;;;;;5075652;28;20835;-59
2023/04/04 01:40:17;;;;;;;5.03;2.13;;;5.50;68.90;;;;;;5075592;28;20963;-59
2023/04/04 01:42:46;;;;;;;3.57;2.30;;;5.40;69.00;;;;;;5075273;28;20464;-59
2023/04/04 01:45:12;;;;;;;3.83;2.37;;;5.50;69.10;;;;;;5075712;28;20858;-59
2023/04/04 01:47:40;;;;;;;3.50;3.17;;;5.50;69.20;;;;;;5075713;28;20441;-59
2023/04/04 01:50:08;;;;;;;4.07;2.57;;;5.40;68.90;;;;;;5075675;28;20444;-59
2023/04/04 01:52:35;;;;;;;3.33;2.30;;;5.40;68.80;;;;;;5075509;28;20510;-59
2023/04/04 01:55:03;;;;;;;3.63;2.70;;;5.40;68.90;;;;;;5075622;28;20878;-58
2023/04/04 01:57:29;;;;;;;4.50;3.17;;;5.40;69.10;;;;;;5075558;28;20874;-59
2023/04/04 01:59:57;;;;;;;4.10;2.93;;;5.40;69.00;;;;;;5075020;28;20942;-59
2023/04/04 02:02:24;;;;;;;5.83;3.37;;;5.40;69.30;;;;;;5075351;28;20452;-59
2023/04/04 02:04:51;;;;;;;4.80;3.00;;;5.40;69.50;;;;;;5075286;28;20490;-59
2023/04/04 02:07:18;;;;;;;5.47;3.10;;;5.40;69.50;;;;;;5076034;28;20452;-59
2023/04/04 02:09:45;;;;;;;5.97;3.00;;;5.40;69.90;;;;;;5075431;28;20451;-59
2023/04/04 02:12:11;;;;;;;6.20;3.70;;;5.30;70.20;;;;;;5075187;28;20862;-59
2023/04/04 02:14:38;;;;;;;6.07;3.07;;;5.30;70.40;;;;;;5074989;28;20460;-59
2023/04/04 02:17:06;;;;;;;6.90;3.30;;;5.30;70.30;;;;;;5075136;28;20441;-59
2023/04/04 02:19:33;;;;;;;4.77;3.80;;;5.30;70.50;;;;;;5075048;28;20444;-59
2023/04/04 02:22:00;;;;;;;4.70;3.03;;;5.30;70.90;;;;;;5075024;28;20480;-59
2023/04/04 02:24:26;;;;;;;4.17;2.90;;;5.20;71.00;;;;;;5074867;28;20493;-58
2023/04/04 02:26:53;;;;;;;5.97;3.87;;;5.20;71.20;;;;;;5074710;28;20958;-58
2023/04/04 02:29:20;;;;;;;4.40;3.00;;;5.20;71.20;;;;;;5074642;28;20453;-59
2023/04/04 02:31:46;;;;;;;5.30;2.57;;;5.20;71.00;;;;;;5074527;28;20455;-59
2023/04/04 02:34:14;;;;;;;5.30;2.97;;;5.10;71.20;;;;;;5075007;28;20460;-59
2023/04/04 02:36:41;;;;;;;3.70;2.00;;;5.20;71.40;;;;;;5074723;28;20859;-59
2023/04/04 02:39:08;;;;;;;6.90;3.20;;;5.10;71.50;;;;;;5074416;28;20468;-59
2023/04/04 02:41:35;;;;;;;4.60;2.47;;;5.10;71.10;;;;;;5074624;28;20456;-59
2023/04/04 02:44:01;;;;;;;3.60;2.70;;;5.10;71.00;;;;;;5074462;28;20488;-59
2023/04/04 02:46:28;;;;;;;3.07;2.43;;;5.00;71.10;;;;;;5074790;28;20475;-59
2023/04/04 02:48:55;;;;;;;3.70;2.20;;;5.00;71.00;;;;;;5074503;28;20474;-59
2023/04/04 02:51:23;;;;;;;4.53;2.30;;;5.00;71.20;;;;;;5074490;28;20455;-59
2023/04/04 02:53:50;;;;;;;4.00;2.80;;;5.00;71.40;;;;;;5074540;28;20468;-59
2023/04/04 02:56:16;;;;;;;3.47;2.60;;;5.00;71.10;;;;;;5074366;28;20449;-59
2023/04/04 02:58:43;;;;;;;5.40;2.50;;;4.90;71.10;;;;;;5074456;28;20445;-59
2023/04/04 03:01:10;;;;;;;3.80;2.60;;;4.90;71.30;;;;;;5074410;28;20444;-59
2023/04/04 03:03:36;;;;;;;3.67;2.93;;;4.90;71.40;;;;;;5074358;28;20476;-59
2023/04/04 03:06:03;;;;;;;3.87;2.50;;;4.90;71.40;;;;;;5074957;28;20448;-59
2023/04/04 03:08:31;;;;;;;3.33;2.60;;;4.80;71.50;;;;;;5074902;28;20455;-59
2023/04/04 03:10:58;;;;;;;2.70;2.50;;;4.80;71.70;;;;;;5074128;28;20441;-58
2023/04/04 03:13:25;;;;;;;3.37;2.83;;;4.80;71.80;;;;;;5073986;28;20547;-58
2023/04/04 03:15:58;;;;;;;4.40;2.67;;;4.80;71.90;;;;;;5073967;28;20506;-58
2023/04/04 03:18:25;;;;;;;6.00;2.70;;;4.80;72.10;;;;;;5074018;28;20429;-58
2023/04/04 03:20:52;;;;;;;3.17;2.50;;;4.80;72.20;;;;;;5074086;28;20458;-58
2023/04/04 03:23:18;;;;;;;4.50;2.83;;;4.80;72.40;;;;;;5073749;28;20484;-58
2023/04/04 03:25:46;;;;;;;3.07;2.60;;;4.80;72.60;;;;;;5073453;28;20965;-58
2023/04/04 03:28:13;;;;;;;5.13;2.77;;;4.80;72.40;;;;;;5073817;28;20455;-58
2023/04/04 03:30:40;;;;;;;3.53;2.17;;;4.70;72.20;;;;;;5073766;28;20436;-58
2023/04/04 03:33:08;;;;;;;4.43;2.53;;;4.70;72.50;;;;;;5073587;28;20865;-58
2023/04/04 03:35:38;;;;;;;4.43;2.70;;;4.70;72.80;;;;;;5073587;28;20455;-58
2023/04/04 03:38:05;;;;;;;4.50;3.07;;;4.70;72.70;;;;;;5074122;28;20440;-58
2023/04/04 03:40:31;;;;;;;4.67;2.27;;;4.70;72.60;;;;;;5073626;28;20429;-58
2023/04/04 03:43:01;;;;;;;5.00;2.40;;;4.60;72.50;;;;;;5072583;28;20907;-58
2023/04/04 03:45:27;;;;;;;4.10;3.00;;;4.60;72.90;;;;;;5073125;28;20452;-58
2023/04/04 03:47:54;;;;;;;3.40;2.47;;;4.70;73.00;;;;;;5073419;28;20460;-58
2023/04/04 03:50:21;;;;;;;3.33;2.53;;;4.60;72.90;;;;;;5073495;28;20457;-58
2023/04/04 03:52:48;;;;;;;5.00;3.00;;;4.60;73.10;;;;;;5073321;28;20463;-58
2023/04/04 03:55:15;;;;;;;3.47;2.37;;;4.60;73.30;;;;;;5073297;28;20452;-58
2023/04/04 03:57:42;;;;;;;3.50;2.37;;;4.60;73.20;;;;;;5073398;28;20480;-59
2023/04/04 04:00:11;;;;;;;6.33;2.97;;;4.60;73.30;;;;;;5073491;28;20468;-58
2023/04/04 04:02:37;;;;;;;3.90;2.70;;;4.50;73.40;;;;;;5073549;28;20459;-58
2023/04/04 04:05:05;;;;;;;5.07;3.07;;;4.50;73.50;;;;;;5073311;28;20484;-58
2023/04/04 04:07:31;;;;;;;4.10;3.40;;;4.50;73.70;;;;;;5073257;28;20808;-58
2023/04/04 04:09:58;;;;;;;5.03;2.57;;;4.50;73.80;;;;;;5073313;28;20468;-58
2023/04/04 04:12:26;;;;;;;5.40;3.23;;;4.50;74.20;;;;;;5073066;28;20845;-58
2023/04/04 04:14:52;;;;;;;4.37;3.10;;;4.50;74.30;;;;;;5073107;28;20559;-58
2023/04/04 04:17:20;;;;;;;3.17;2.87;;;4.50;74.30;;;;;;5073533;28;20445;-58
2023/04/04 04:19:47;;;;;;;3.33;2.80;;;4.40;74.50;;;;;;5073158;28;20471;-58
2023/04/04 04:22:14;;;;;;;4.63;3.50;;;4.40;74.90;;;;;;5073306;28;20457;-58
2023/04/04 04:24:40;;;;;;;7.07;2.97;;;4.50;75.10;;;;;;5073166;28;20488;-58
2023/04/04 04:27:07;;;;;;;5.40;3.47;;;4.40;75.00;;;;;;5072765;28;20957;-58
2023/04/04 04:29:34;;;;;;;5.93;3.60;;;4.40;75.20;;;;;;5073120;28;20445;-58
2023/04/04 04:32:01;;;;;;;6.33;2.87;;;4.40;75.60;;;;;;5073066;28;20452;-58
2023/04/04 04:34:30;;;;;;;3.17;2.87;;;4.30;75.60;;;;;;5072937;28;20460;-58
2023/04/04 04:36:57;;;;;;;4.90;3.00;;;4.30;75.80;;;;;;5072999;28;20455;-58
2023/04/04 04:39:23;;;;;;;4.20;2.93;;;4.30;75.80;;;;;;5073253;28;20459;-59
2023/04/04 04:41:50;;;;;;;3.67;3.00;;;4.30;75.90;;;;;;5072843;28;20961;-58
2023/04/04 04:44:17;;;;;;;3.83;2.77;;;4.20;75.90;;;;;;5072467;28;20894;-58
2023/04/04 04:46:43;;;;;;;3.50;2.70;;;4.20;76.10;;;;;;5072894;28;20451;-58
2023/04/04 04:49:10;;;;;;;3.67;2.80;;;4.20;76.20;;;;;;5072590;28;21046;-58
2023/04/04 04:51:39;;;;;;;4.80;3.30;;;4.10;76.40;;;;;;5072846;28;20514;-58
2023/04/04 04:54:05;;;;;;;4.67;3.13;;;4.10;77.00;;;;;;5075277;28;20471;-58
2023/04/04 04:56:32;;;;;;;5.77;3.00;;;4.10;77.20;;;;;;5076626;28;20447;-58
2023/04/04 04:58:59;;;;;;;4.60;2.60;;;4.10;76.90;;;;;;5076481;28;20817;-58
2023/04/04 05:01:26;;;;;;;5.77;3.23;;;4.10;77.10;;;;;;5076126;28;20996;-58
2023/04/04 05:03:52;;;;;;;6.97;3.70;;;4.00;77.30;;;;;;5076248;28;20492;-59
2023/04/04 05:06:19;;;;;;;4.97;3.37;;;4.00;77.70;;;;;;5076536;28;20452;-59
2023/04/04 05:08:47;;;;;;;5.53;3.10;;;4.00;77.90;;;;;;5076341;28;20471;-59
2023/04/04 05:11:14;;;;;;;4.00;3.00;;;3.90;77.60;;;;;;5076398;28;20497;-59
2023/04/04 05:13:40;;;;;;;3.20;2.67;;;3.90;77.60;;;;;;5076276;28;20475;-59
2023/04/04 05:16:07;;;;;;;7.47;2.80;;;3.90;78.10;;;;;;5076285;28;20552;-59
2023/04/04 05:18:34;;;;;;;4.10;2.40;;;3.80;78.40;;;;;;5076236;28;20471;-59
2023/04/04 05:21:01;;;;;;;4.50;2.77;;;3.80;78.90;;;;;;5076460;28;20440;-59
2023/04/04 05:23:28;;;;;;;4.60;2.60;;;3.80;79.20;;;;;;5076424;28;20465;-59
2023/04/04 05:25:56;;;;;;;2.53;2.30;;;3.80;78.90;;;;;;5075827;28;20452;-59
2023/04/04 05:28:22;;;;;;;3.93;2.70;;;3.70;79.00;;;;;;5076078;28;20445;-59
2023/04/04 05:30:49;;;;;;;2.87;2.20;;;3.70;79.30;;;;;;5076057;28;20448;-59
2023/04/04 05:33:16;;;;;;;3.17;2.60;;;3.70;79.60;;;;;;5075808;28;20538;-59
2023/04/04 05:35:42;;;;;;;6.43;2.80;;;3.60;79.80;;;;;;5077015;28;20836;-59
2023/04/04 05:38:09;;;;;;;2.90;2.57;;;3.60;80.00;;;;;;5075646;28;20475;-59
2023/04/04 05:40:36;;;;;;;4.93;3.50;;;3.60;80.30;;;;;;5075845;28;20428;-59
2023/04/04 05:43:04;;;;;;;3.30;3.00;;;3.60;80.70;;;;;;5075994;28;20476;-59
2023/04/04 05:45:31;;;;;;;3.40;3.10;;;3.60;81.00;;;;;;5075686;28;20476;-59
2023/04/04 05:47:57;;;;;;;3.83;2.90;;;3.60;81.40;;;;;;5075377;28;20800;-59
2023/04/04 05:50:24;;;;;;;7.80;3.10;;;3.50;81.80;;;;;;5075862;28;20452;-59
2023/04/04 05:52:53;;;;;;;6.10;2.90;;;3.60;82.40;;;;;;5075597;28;20447;-59
2023/04/04 05:55:20;;;;;;;2.80;2.33;;;3.60;82.50;;;;;;5075198;28;20444;-59
2023/04/04 05:57:48;;;;;;;2.60;2.40;;;3.60;82.90;;;;;;5075740;28;20448;-59
2023/04/04 06:00:18;;;;;;;2.80;2.60;;;3.60;83.20;;;;;;5075409;28;20476;-59
2023/04/04 06:02:45;;;;;;;2.93;2.43;;;3.60;83.60;;;;;;5075253;28;20453;-59
2023/04/04 06:05:11;;;;;;;2.97;2.60;;;3.60;83.70;;;;;;5074399;28;20491;-59
2023/04/04 06:07:38;;;;;;;3.87;2.60;;;3.60;84.30;;;;;;5075266;28;20451;-59
2023/04/04 06:10:06;;;;;;;4.67;2.80;;;3.60;84.80;;;;;;5074914;28;20972;-59
2023/04/04 06:12:33;;;;;;;5.43;2.93;;;3.70;85.00;;;;;;5075146;28;20449;-59
2023/04/04 06:14:59;;;;;;;3.40;3.10;;;3.70;85.50;;;;;;5075071;28;20464;-59
2023/04/04 06:17:27;;;;;;;4.23;3.40;;;3.70;85.90;;;;;;5075120;28;20445;-60
2023/04/04 06:19:54;;;;;;;3.50;3.00;;;3.80;86.30;;;;;;5075087;28;20445;-60
2023/04/04 06:22:21;;;;;;;7.73;3.57;;;3.80;86.80;;;;;;5074981;28;20444;-59
2023/04/04 06:24:48;;;;;;;4.80;3.60;;;3.90;87.40;;;;;;5075026;28;20512;-60
2023/04/04 06:27:14;;;;;;;3.43;2.93;;;3.90;87.80;;;;;;5075817;28;20855;-59
2023/04/04 06:29:41;;;;;;;6.83;3.60;;;4.00;88.20;;;;;;5074798;28;20441;-59
2023/04/04 06:32:08;;;;;;;7.60;4.00;;;4.00;88.60;;;;;;5074732;28;20499;-59
2023/04/04 06:34:36;;;;;;;5.53;4.30;;;4.00;88.80;;;;;;5074729;28;20480;-59
2023/04/04 06:37:03;;;;;;;6.93;4.40;;;4.10;89.50;;;;;;5074722;28;20452;-59
2023/04/04 06:39:33;;;;;;;8.93;5.40;;;4.20;89.30;;;;;;5074577;28;20543;-59
2023/04/04 06:42:00;;;;;;;7.10;6.20;;;4.20;89.20;;;;;;5074578;28;20456;-59
2023/04/04 06:44:27;;;;;;;8.10;6.23;;;4.30;89.10;;;;;;5074474;28;20484;-59
2023/04/04 06:46:54;;;;;;;9.93;6.33;;;4.40;88.80;;;;;;5074847;28;20479;-59
2023/04/04 06:49:20;;;;;;;5.73;5.17;;;4.50;88.00;;;;;;5074534;28;20518;-59
2023/04/04 06:51:51;;;;;;;6.33;5.13;;;4.60;87.70;;;;;;5074157;28;20935;-60
2023/04/04 06:54:18;;;;;;;7.60;5.30;;;4.70;87.80;;;;;;5074405;28;20465;-59
2023/04/04 06:56:45;;;;;;;4.07;3.70;;;4.80;87.60;;;;;;5074543;28;20456;-59
2023/04/04 06:59:11;;;;;;;5.40;3.70;;;4.90;86.50;;;;;;5074558;28;20448;-59
2023/04/04 07:01:38;;;;;;;5.30;3.80;;;5.00;85.50;;;;;;5074018;28;20947;-59
2023/04/04 07:04:05;;;;;;;7.07;3.43;;;5.20;84.70;;;;;;5074053;28;20465;-59
2023/04/04 07:06:31;;;;;;;5.00;4.20;;;5.30;83.40;;;;;;5074122;28;20452;-59
2023/04/04 07:08:59;;;;;;;9.00;4.97;;;5.40;81.00;;;;;;5074108;28;20456;-59
2023/04/04 07:11:28;;;;;;;5.07;3.83;;;5.50;80.40;;;;;;5074164;28;20448;-59
2023/04/04 07:13:54;;;;;;;4.27;3.30;;;5.60;80.10;;;;;;5073782;28;20583;-59
2023/04/04 07:16:21;;;;;;;5.37;3.30;;;5.70;79.10;;;;;;5073978;28;20869;-60
2023/04/04 07:18:48;;;;;;;8.70;3.33;;;5.80;79.00;;;;;;5073582;28;20938;-60
2023/04/04 07:21:15;;;;;;;4.90;3.30;;;5.90;78.70;;;;;;5074026;28;20448;-59
2023/04/04 07:23:41;;;;;;;8.13;2.87;;;6.10;78.70;;;;;;5073827;28;20502;-60
2023/04/04 07:26:10;;;;;;;6.90;3.20;;;6.20;78.80;;;;;;5073505;28;20476;-60
2023/04/04 07:28:37;;;;;;;5.20;3.10;;;6.40;78.40;;;;;;5073746;28;20510;-60
2023/04/04 07:31:04;;;;;;;6.60;2.27;;;6.50;77.80;;;;;;5073493;28;20931;-60
2023/04/04 07:33:31;;;;;;;3.47;2.60;;;6.70;75.90;;;;;;5073625;28;20555;-60
2023/04/04 07:35:58;;;;;;;3.20;2.40;;;6.80;73.40;;;;;;5073653;28;20440;-60
2023/04/04 07:38:26;;;;;;;3.77;2.33;;;6.90;72.50;;;;;;5073293;28;20888;-60
2023/04/04 07:40:52;;;;;;;4.40;2.20;;;7.00;72.10;;;;;;5073766;28;20429;-60
2023/04/04 07:43:21;;;;;;;3.67;2.27;;;7.20;70.20;;;;;;5073649;28;20874;-60
2023/04/04 07:45:48;;;;;;;3.30;2.20;;;7.30;68.00;;;;;;5073426;28;20512;-60
2023/04/04 07:48:14;;;;;;;3.23;2.27;;;7.40;66.20;;;;;;5073507;28;20452;-60
2023/04/04 07:50:41;;;;;;;2.83;2.10;;;7.50;65.50;;;;;;5073665;28;20449;-60
2023/04/04 07:53:08;;;;;;;2.70;2.07;;;7.70;64.60;;;;;;5073544;28;20464;-60
2023/04/04 07:55:35;;;;;;;1.90;1.67;;;7.80;63.40;;;;;;5073946;28;20440;-60
2023/04/04 07:58:01;;;;;;;3.40;1.90;;;8.00;62.10;;;;;;5073571;28;20498;-60
2023/04/04 08:00:29;;;;;;;1.77;1.50;;;8.10;60.60;;;;;;5073647;28;20441;-59
2023/04/04 08:02:59;;;;;;;2.93;1.97;;;8.20;59.70;;;;;;5073584;28;20814;-60
2023/04/04 08:05:26;;;;;;;4.73;2.00;;;8.40;59.30;;;;;;5074821;28;20479;-60
2023/04/04 08:07:53;;;;;;;2.23;1.73;;;8.60;58.30;;;;;;5075684;28;20461;-60
2023/04/04 08:10:20;;;;;;;3.80;1.90;;;8.80;57.80;;;;;;5073860;28;20449;-60
2023/04/04 08:12:47;;;;;;;4.67;2.27;;;8.90;57.60;;;;;;5073368;28;20543;-59
2023/04/04 08:15:14;;;;;;;2.67;1.87;;;9.10;56.30;;;;;;5073178;28;20447;-60
2023/04/04 08:17:43;;;;;;;4.20;2.07;;;9.30;56.30;;;;;;5073306;28;20496;-60
2023/04/04 08:20:10;;;;;;;2.83;1.87;;;9.40;54.70;;;;;;5073215;28;20484;-60
2023/04/04 08:22:38;;;;;;;2.83;1.67;;;9.60;53.80;;;;;;5073279;28;20879;-60
2023/04/04 08:25:05;;;;;;;3.10;1.77;;;9.70;53.10;;;;;;5072756;28;20837;-59
2023/04/04 08:27:31;;;;;;;1.50;1.40;;;9.90;52.50;;;;;;5073179;28;20497;-60
2023/04/04 08:29:59;;;;;;;4.93;1.93;;;9.90;50.90;;;;;;5076781;28;20441;-60
2023/04/04 08:32:25;;;;;;;2.63;1.50;;;10.00;49.30;;;;;;5077142;28;20460;-59
2023/04/04 08:34:53;;;;;;;3.47;1.67;;;10.20;49.30;;;;;;5077039;28;20461;-59
2023/04/04 08:37:20;;;;;;;4.47;1.60;;;10.30;48.60;;;;;;5077032;28;20444;-59
2023/04/04 08:39:47;;;;;;;4.00;1.60;;;10.40;48.00;;;;;;5076839;28;20464;-59
2023/04/04 08:42:15;;;;;;;2.57;1.73;;;10.50;48.00;;;;;;5076892;28;20444;-60
2023/04/04 08:44:45;;;;;;;3.03;1.67;;;10.60;47.40;;;;;;5076769;28;20472;-59
2023/04/04 08:47:15;;;;;;;3.63;1.70;;;10.70;47.40;;;;;;5076563;28;20961;-59
2023/04/04 08:49:44;;;;;;;4.33;1.27;;;10.80;46.30;;;;;;5076685;28;20452;-59
2023/04/04 08:52:12;;;;;;;3.70;1.63;;;10.90;46.90;;;;;;5076471;28;20961;-59
2023/04/04 08:54:40;;;;;;;2.30;1.40;;;11.10;45.80;;;;;;5076244;28;21005;-59
2023/04/04 08:57:07;;;;;;;2.23;1.80;;;11.20;45.50;;;;;;5076608;28;20452;-60
2023/04/04 08:59:34;;;;;;;4.20;1.80;;;11.40;45.10;;;;;;5076642;28;20452;-59
2023/04/04 09:02:12;;;;;;;1.80;1.60;;;11.60;44.50;;;;;;5076164;28;20447;-59
2023/04/04 09:04:40;;;;;;;2.20;1.43;;;11.80;45.00;;;;;;5076316;28;20460;-59
2023/04/04 09:07:07;;;;;;;3.77;2.10;;;12.10;43.90;;;;;;5076461;28;20444;-60
2023/04/04 09:09:36;;;;;;;2.07;1.83;;;12.30;43.10;;;;;;5076463;28;20445;-59
2023/04/04 09:12:04;;;;;;;3.13;2.20;;;12.50;43.20;;;;;;5076309;28;20448;-60
2023/04/04 09:14:32;;;;;;;3.43;1.97;;;12.70;42.40;;;;;;5076324;28;20468;-59
2023/04/04 09:16:58;;;;;;;2.50;2.03;;;13.00;42.80;;;;;;5076275;28;20498;-60
2023/04/04 09:19:25;;;;;;;4.57;2.40;;;13.20;41.80;;;;;;5075993;28;20859;-60
2023/04/04 09:21:52;;;;;;;2.87;1.90;;;13.30;40.80;;;;;;5076263;28;20859;-60
2023/04/04 09:24:18;;;;;;;2.90;1.77;;;13.50;40.40;;;;;;5076193;28;20474;-59
2023/04/04 09:26:50;;;;;;;2.10;1.90;;;13.60;40.20;;;;;;5076169;28;20480;-60
2023/04/04 09:29:18;;;;;;;3.10;1.90;;;13.70;39.80;;;;;;5076119;28;20483;-59
2023/04/04 09:31:45;;;;;;;2.67;1.70;;;13.90;39.40;;;;;;5076039;28;20938;-59
2023/04/04 09:34:13;;;;;;;5.70;1.80;;;14.00;39.30;;;;;;5075969;28;20504;-59
2023/04/04 09:36:40;;;;;;;2.80;1.93;;;14.20;39.60;;;;;;5076200;28;20448;-59
2023/04/04 09:39:07;;;;;;;3.40;1.90;;;14.50;38.90;;;;;;5075372;28;20514;-59
2023/04/04 09:41:36;;;;;;;3.07;2.07;;;14.70;38.40;;;;;;5074927;28;20453;-59
2023/04/04 09:44:05;;;;;;;3.73;2.10;;;14.90;38.00;;;;;;5075761;28;20476;-59
2023/04/04 09:46:32;;;;;;;2.97;1.80;;;15.10;37.60;;;;;;5075699;28;20491;-59
2023/04/04 09:49:00;;;;;;;1.80;1.70;;;15.30;36.70;;;;;;5075827;28;20449;-59
2023/04/04 09:51:34;;;;;;;4.70;2.20;;;15.60;36.80;;;;;;5076120;28;20437;-59
2023/04/04 09:54:01;;;;;;;2.90;2.10;;;15.90;36.20;;;;;;5075869;28;20465;-59
2023/04/04 09:56:28;;;;;;;2.50;1.87;;;16.10;35.80;;;;;;5075761;28;20437;-59
2023/04/04 09:58:55;;;;;;;2.07;1.87;;;16.30;34.60;;;;;;5075557;28;20453;-59
2023/04/04 10:01:24;;;;;;;3.73;2.13;;;16.50;34.10;;;;;;5075538;28;20441;-59
2023/04/04 10:03:54;;;;;;;3.33;1.90;;;16.60;33.60;;;;;;5075336;28;20472;-59
2023/04/04 10:06:22;;;;;;;4.27;2.40;;;16.80;31.60;;;;;;5075106;28;21017;-59
2023/04/04 10:08:49;;;;;;;2.77;1.80;;;17.00;32.00;;;;;;5075462;28;20456;-59
2023/04/04 10:11:29;;;;;;;3.30;2.07;;;17.20;32.10;;;;;;5075300;28;20545;-59
2023/04/04 10:13:57;;;;;;;4.40;2.77;;;17.60;31.90;;;;;;5075158;28;20553;-59
2023/04/04 10:16:25;;;;;;;4.30;2.23;;;17.80;30.50;;;;;;5075239;28;20468;-59
2023/04/04 10:18:53;;;;;;;3.43;2.10;;;18.00;31.10;;;;;;5075155;28;20449;-59
2023/04/04 10:21:20;;;;;;;5.03;2.57;;;18.40;30.70;;;;;;5075153;28;20502;-59
2023/04/04 10:23:48;;;;;;;1.97;1.50;;;18.70;30.00;;;;;;5074885;28;20512;-59
2023/04/04 10:26:15;;;;;;;2.30;2.07;;;19.10;29.80;;;;;;5074808;28;20484;-59
2023/04/04 10:28:42;;;;;;;3.03;1.93;;;19.60;29.30;;;;;;5074839;28;20448;-59
2023/04/04 10:31:14;;;;;;;2.27;1.70;;;19.90;28.00;;;;;;5074867;28;20444;-59
2023/04/04 10:33:47;;;;;;;2.00;1.70;;;20.40;28.00;;;;;;5074894;28;20465;-59
2023/04/04 10:36:21;;;;;;;3.27;2.33;;;20.90;28.00;;;;;;5074944;28;20436;-59
2023/04/04 10:38:58;;;;;;;2.27;2.00;;;21.40;27.20;;;;;;5074547;28;20532;-59
2023/04/04 10:41:27;;;;;;;4.37;2.20;;;21.80;25.40;;;;;;5074700;28;20425;-59
2023/04/04 10:43:56;;;;;;;4.57;2.30;;;22.20;25.30;;;;;;5074612;28;20469;-59
2023/04/04 10:46:29;;;;;;;3.53;1.97;;;22.70;25.20;;;;;;5074487;28;20918;-60
2023/04/04 10:49:00;;;;;;;4.90;2.43;;;23.10;25.20;;;;;;5075061;28;20433;-60
2023/04/04 10:51:27;;;;;;;2.90;2.00;;;23.70;24.40;;;;;;5073733;28;20433;-60
2023/04/04 10:53:54;;;;;;;3.43;1.90;;;24.10;23.30;;;;;;5074363;28;20467;-59
2023/04/04 10:56:21;;;;;;;4.60;1.93;;;24.60;22.80;;;;;;5074039;28;20847;-59
2023/04/04 10:58:49;;;;;;;3.87;2.07;;;25.00;22.40;;;;;;5073990;28;20448;-59
2023/04/04 11:01:19;;;;;;;2.20;1.80;;;25.50;21.70;;;;;;5074208;28;20455;-59
2023/04/04 11:04:20;;;;;;;5.53;1.80;;;25.80;21.60;;;;;;5074157;28;20555;-59
2023/04/04 11:07:09;;;;;;;3.33;2.23;;;26.30;21.30;;;;;;5071836;28;21004;-59
2023/04/04 11:09:52;;;;;;;3.87;2.40;;;26.80;21.10;;;;;;5074156;28;20433;-59
2023/04/04 11:12:32;;;;;;;3.17;2.10;;;27.20;20.40;;;;;;5074177;28;20486;-59
2023/04/04 11:15:09;;;;;;;2.83;2.10;;;27.50;20.00;;;;;;5073950;28;20831;-59
2023/04/04 11:18:01;;;;;;;3.80;3.40;;;27.70;20.10;;;;;;5074009;28;20432;-59
2023/04/04 11:20:33;;;;;;;3.20;2.73;;;27.90;19.50;;;;;;5070859;28;20555;-59
2023/04/04 11:23:06;;;;;;;3.83;2.17;;;28.20;19.60;;;;;;5073817;28;20471;-59
2023/04/04 11:25:34;;;;;;;3.20;2.30;;;28.40;18.80;;;;;;5073778;28;20440;-59
2023/04/04 11:28:15;;;;;;;5.13;1.90;;;28.50;19.10;;;;;;5073502;28;20945;-59
2023/04/04 11:30:50;;;;;;;3.60;2.30;;;28.70;19.10;;;;;;5073502;28;20432;-58
2023/04/04 11:33:27;;;;;;;3.63;2.27;;;29.00;18.90;;;;;;5073594;28;20546;-59
2023/04/04 11:35:59;;;;;;;2.93;2.30;;;29.40;18.40;;;;;;5073758;28;20431;-58
2023/04/04 11:38:29;;;;;;;2.20;2.00;;;29.70;17.80;;;;;;5073585;28;20463;-58
2023/04/04 11:40:56;;;;;;;1.80;1.70;;;29.90;17.70;;;;;;5073721;28;20481;-59
2023/04/04 11:43:23;;;;;;;3.40;3.10;;;30.30;17.80;;;;;;5073136;28;20468;-59
2023/04/04 11:45:50;;;;;;;2.63;2.43;;;30.70;17.10;;;;;;5073132;28;20870;-59
2023/04/04 11:48:19;;;;;;;3.90;2.00;;;31.00;16.90;;;;;;5073495;28;20477;-59
2023/04/04 11:50:50;;;;;;;3.03;1.97;;;31.30;16.90;;;;;;5073186;28;20483;-59
2023/04/04 11:53:17;;;;;;;7.13;2.03;;;31.30;15.60;;;;;;5073483;28;20555;-59
2023/04/04 11:55:49;;;;;;;2.60;2.40;;;31.40;16.30;;;;;;5074237;28;20494;-59
2023/04/04 11:58:17;;;;;;;3.30;2.23;;;31.80;16.10;;;;;;5073065;28;20973;-59
2023/04/04 12:00:44;;;;;;;2.23;2.03;;;32.20;15.60;;;;;;5073044;28;20444;-59
2023/04/04 12:03:12;;;;;;;3.23;2.50;;;32.50;15.70;;;;;;5072546;28;20464;-59
2023/04/04 12:05:40;;;;;;;2.97;2.63;;;32.60;14.90;;;;;;5074093;28;20205;-59
2023/04/04 12:08:09;;;;;;;3.03;2.43;;;32.80;14.90;;;;;;5073335;28;20254;-59
2023/04/04 12:10:37;;;;;;;3.27;2.97;;;32.90;15.30;;;;;;5073298;28;20209;-59
2023/04/04 12:13:07;;;;;;;4.00;2.50;;;33.30;15.30;;;;;;5073160;28;20225;-59
2023/04/04 12:15:35;;;;;;;3.57;3.27;;;33.50;15.20;;;;;;5073356;28;20189;-59
2023/04/04 12:18:02;;;;;;;4.30;2.50;;;33.80;14.80;;;;;;5072943;28;20202;-60
2023/04/04 12:20:30;;;;;;;3.20;2.57;;;34.00;14.40;;;;;;5073216;28;20214;-60
2023/04/04 12:22:57;;;;;;;3.17;2.80;;;34.20;14.50;;;;;;5073134;28;20288;-60
2023/04/04 12:25:25;;;;;;;3.15;2.85;;;34.50;14.30;;;;;;5072900;28;20679;-60
2023/04/04 12:27:53;;;;;;;7.95;4.05;;;34.70;14.10;;;;;;5073292;28;20218;-60
2023/04/04 12:30:21;;;;;;;3.22;2.92;;;34.90;13.70;;;;;;5073052;28;20229;-60
2023/04/04 12:32:49;;;;;;;4.40;3.78;;;35.10;14.00;;;;;;5073164;28;20201;-60
2023/04/04 12:35:17;;;;;;;4.00;3.55;;;35.30;13.20;;;;;;5073038;28;20205;-60
2023/04/04 12:38:00;;;;;;;2.33;2.13;;;35.40;12.70;;;;;;5073170;28;20198;-59
2023/04/04 12:40:35;;;;;;;3.65;3.33;;;35.50;13.50;;;;;;5072683;28;20197;-59
2023/04/04 12:43:07;;;;;;;2.90;2.60;;;35.70;12.50;;;;;;5073145;28;20247;-59
2023/04/04 12:45:38;;;;;;;4.55;3.28;;;35.60;13.50;;;;;;5073182;28;20193;-58
2023/04/04 12:48:12;;;;;;;4.93;3.63;;;35.90;12.40;;;;;;5073499;28;20607;-59
2023/04/04 12:50:50;;;;;;;3.58;2.80;;;35.90;12.60;;;;;;5073108;28;20190;-59
2023/04/04 12:53:20;;;;;;;3.85;3.38;;;35.90;13.10;;;;;;5072777;28;20256;-58
2023/04/04 12:55:48;;;;;;;4.07;3.50;;;35.70;13.00;;;;;;5072847;28;20622;-59
2023/04/04 12:58:16;;;;;;;4.97;3.80;;;35.60;13.30;;;;;;5072962;28;20575;-59